createdAt,value
2018-11-29T00:00:33.019Z,7.40
2018-11-29T00:03:01.544Z,7.40
2018-11-29T00:05:29.775Z,7.40
2018-11-29T00:07:58.367Z,7.40
2018-11-29T00:10:26.922Z,7.40
2018-11-29T00:12:55.242Z,7.30
2018-11-29T00:15:23.699Z,7.40
2018-11-29T00:17:52.756Z,7.30
2018-11-29T00:20:21.388Z,7.40
2018-11-29T00:22:50.373Z,7.40
2018-11-29T00:25:19.135Z,7.40
2018-11-29T00:27:47.847Z,7.40
2018-11-29T00:30:21.956Z,7.50
2018-11-29T00:32:50.930Z,7.50
2018-11-29T00:35:19.207Z,7.50
2018-11-29T00:37:47.531Z,7.50
2018-11-29T00:40:17.643Z,7.50
2018-11-29T00:42:45.941Z,7.50
2018-11-29T00:45:15.138Z,7.60
2018-11-29T00:47:43.777Z,7.60
2018-11-29T00:50:13.002Z,7.60
2018-11-29T00:52:41.999Z,7.50
2018-11-29T00:55:11.373Z,7.50
2018-11-29T00:57:39.832Z,7.50
2018-11-29T01:00:11.093Z,7.50
2018-11-29T01:02:39.406Z,7.50
2018-11-29T01:05:07.701Z,7.50
2018-11-29T01:07:35.985Z,7.40
2018-11-29T01:10:07.689Z,7.40
2018-11-29T01:12:35.976Z,7.50
2018-11-29T01:15:05.002Z,7.40
2018-11-29T01:17:33.343Z,7.40
2018-11-29T01:20:01.628Z,7.40
2018-11-29T01:22:29.908Z,7.30
2018-11-29T01:24:58.220Z,7.40
2018-11-29T01:27:26.468Z,7.40
2018-11-29T01:29:54.777Z,7.40
2018-11-29T01:32:23.658Z,7.40
2018-11-29T01:34:51.934Z,7.40
2018-11-29T01:37:20.197Z,7.30
2018-11-29T01:39:48.498Z,7.40
2018-11-29T01:42:16.763Z,7.50
2018-11-29T01:44:45.066Z,7.50
2018-11-29T01:47:13.442Z,7.40
2018-11-29T01:49:41.729Z,7.50
2018-11-29T01:52:10.004Z,7.50
2018-11-29T01:54:38.309Z,7.50
2018-11-29T01:57:06.730Z,7.40
2018-11-29T01:59:35.015Z,7.50
2018-11-29T02:02:03.328Z,7.50
2018-11-29T02:04:31.628Z,7.50
2018-11-29T02:07:00.223Z,7.40
2018-11-29T02:09:28.560Z,7.40
2018-11-29T02:11:56.831Z,7.30
2018-11-29T02:14:25.071Z,7.30
2018-11-29T02:16:53.480Z,7.30
2018-11-29T02:19:21.747Z,7.20
2018-11-29T02:21:50.010Z,7.20
2018-11-29T02:24:18.303Z,7.20
2018-11-29T02:26:46.588Z,7.20
2018-11-29T02:29:14.865Z,7.30
2018-11-29T02:31:43.105Z,7.30
2018-11-29T02:34:11.382Z,7.30
2018-11-29T02:36:39.667Z,7.30
2018-11-29T02:39:08.538Z,7.30
2018-11-29T02:41:37.109Z,7.30
2018-11-29T02:44:05.768Z,7.30
2018-11-29T02:46:34.043Z,7.30
2018-11-29T02:49:02.392Z,7.40
2018-11-29T02:51:30.640Z,7.40
2018-11-29T02:53:58.891Z,7.40
2018-11-29T02:56:27.526Z,7.40
2018-11-29T02:58:55.837Z,7.40
2018-11-29T03:01:24.112Z,7.40
2018-11-29T03:03:52.740Z,7.50
2018-11-29T03:06:21.028Z,7.40
2018-11-29T03:08:49.283Z,7.40
2018-11-29T03:11:17.591Z,7.50
2018-11-29T03:13:45.856Z,7.50
2018-11-29T03:16:14.153Z,7.50
2018-11-29T03:18:42.455Z,7.50
2018-11-29T03:21:11.049Z,7.50
2018-11-29T03:23:39.642Z,7.50
2018-11-29T03:26:07.928Z,7.50
2018-11-29T03:28:36.176Z,7.50
2018-11-29T03:31:04.821Z,7.50
2018-11-29T03:33:33.191Z,7.50
2018-11-29T03:36:01.445Z,7.50
2018-11-29T03:38:29.711Z,7.50
2018-11-29T03:40:58.196Z,7.50
2018-11-29T03:43:26.680Z,7.50
2018-11-29T03:45:55.014Z,7.50
2018-11-29T03:48:24.190Z,7.50
2018-11-29T03:50:53.102Z,7.50
2018-11-29T03:53:21.432Z,7.40
2018-11-29T03:55:49.692Z,7.50
2018-11-29T03:58:18.429Z,7.40
2018-11-29T04:00:46.700Z,7.40
2018-11-29T04:03:14.975Z,7.40
2018-11-29T04:05:43.355Z,7.40
2018-11-29T04:08:11.653Z,7.40
2018-11-29T04:10:39.916Z,7.40
2018-11-29T04:13:08.229Z,7.40
2018-11-29T04:15:36.567Z,7.40
2018-11-29T04:18:05.467Z,7.40
2018-11-29T04:20:33.743Z,7.40
2018-11-29T04:23:02.394Z,7.30
2018-11-29T04:25:30.635Z,7.30
2018-11-29T04:27:59.208Z,7.40
2018-11-29T04:30:27.830Z,7.40
2018-11-29T04:32:56.092Z,7.40
2018-11-29T04:35:24.814Z,7.30
2018-11-29T04:37:53.178Z,7.30
2018-11-29T04:40:21.495Z,7.40
2018-11-29T04:42:49.756Z,7.40
2018-11-29T04:45:18.224Z,7.50
2018-11-29T04:47:47.069Z,7.40
2018-11-29T04:50:16.329Z,7.50
2018-11-29T04:52:44.604Z,7.40
2018-11-29T04:55:12.896Z,7.50
2018-11-29T04:57:41.565Z,7.50
2018-11-29T05:00:14.148Z,7.40
2018-11-29T05:02:42.680Z,7.40
2018-11-29T05:05:11.869Z,7.50
2018-11-29T05:07:40.489Z,7.40
2018-11-29T05:10:10.664Z,7.40
2018-11-29T05:12:39.147Z,7.50
2018-11-29T05:15:09.123Z,7.50
2018-11-29T05:17:37.374Z,7.50
2018-11-29T05:20:06.025Z,7.60
2018-11-29T05:22:34.883Z,7.60
2018-11-29T05:25:03.176Z,7.50
2018-11-29T05:27:31.847Z,7.50
2018-11-29T05:30:01.908Z,7.50
2018-11-29T05:32:30.517Z,7.50
2018-11-29T05:34:58.778Z,7.50
2018-11-29T05:37:27.131Z,7.50
2018-11-29T05:39:55.639Z,7.50
2018-11-29T05:42:23.907Z,7.50
2018-11-29T05:44:52.405Z,7.40
2018-11-29T05:47:20.678Z,7.40
2018-11-29T05:49:50.085Z,7.30
2018-11-29T05:52:18.367Z,7.30
2018-11-29T05:54:46.624Z,7.30
2018-11-29T05:57:14.891Z,7.30
2018-11-29T05:59:43.479Z,7.30
2018-11-29T06:02:12.164Z,7.30
2018-11-29T06:04:40.755Z,7.20
2018-11-29T06:07:09.503Z,7.20
2018-11-29T06:09:37.899Z,7.20
2018-11-29T06:12:06.227Z,7.30
2018-11-29T06:14:34.547Z,7.20
2018-11-29T06:17:02.847Z,7.30
2018-11-29T06:19:31.146Z,7.20
2018-11-29T06:22:01.247Z,7.20
2018-11-29T06:24:29.516Z,7.30
2018-11-29T06:26:57.791Z,7.30
2018-11-29T06:29:26.102Z,7.30
2018-11-29T06:31:54.360Z,7.30
2018-11-29T06:34:23.646Z,7.30
2018-11-29T06:36:53.468Z,7.40
2018-11-29T06:39:21.783Z,7.40
2018-11-29T06:41:50.063Z,7.50
2018-11-29T06:44:18.658Z,7.50
2018-11-29T06:46:46.947Z,7.50
2018-11-29T06:49:15.260Z,7.60
2018-11-29T06:51:43.955Z,7.60
2018-11-29T06:54:12.319Z,7.60
2018-11-29T06:56:40.591Z,7.70
2018-11-29T06:59:08.867Z,7.60
2018-11-29T07:01:37.211Z,7.70
2018-11-29T07:04:06.261Z,7.70
2018-11-29T07:06:34.558Z,7.70
2018-11-29T07:09:02.884Z,7.70
2018-11-29T07:11:31.497Z,7.70
2018-11-29T07:13:59.768Z,7.60
2018-11-29T07:16:28.034Z,7.60
2018-11-29T07:18:56.920Z,7.50
2018-11-29T07:21:36.435Z,7.50
2018-11-29T07:24:05.132Z,7.50
2018-11-29T07:26:34.130Z,7.40
2018-11-29T07:29:02.416Z,7.30
2018-11-29T07:31:31.021Z,7.30
2018-11-29T07:34:00.200Z,7.20
2018-11-29T07:36:28.604Z,7.20
2018-11-29T07:38:56.969Z,7.20
2018-11-29T07:41:25.704Z,7.20
2018-11-29T07:43:54.121Z,7.30
2018-11-29T07:46:22.875Z,7.30
2018-11-29T07:48:51.528Z,7.30
2018-11-29T07:51:20.149Z,7.30
2018-11-29T07:53:48.632Z,7.40
2018-11-29T07:56:17.041Z,7.40
2018-11-29T07:58:45.449Z,7.50
2018-11-29T08:01:15.311Z,7.50
2018-11-29T08:03:43.954Z,7.50
2018-11-29T08:06:12.227Z,7.60
2018-11-29T08:08:40.525Z,7.60
2018-11-29T08:11:08.844Z,7.60
2018-11-29T08:13:37.128Z,7.60
2018-11-29T08:16:06.027Z,7.70
2018-11-29T08:18:34.312Z,7.70
2018-11-29T08:21:02.809Z,7.80
2018-11-29T08:23:31.057Z,7.80
2018-11-29T08:25:59.379Z,7.90
2018-11-29T08:28:28.000Z,7.90
2018-11-29T08:30:56.301Z,7.90
2018-11-29T08:33:24.560Z,7.90
2018-11-29T08:35:52.976Z,7.90
2018-11-29T08:38:21.357Z,7.90
2018-11-29T08:40:49.655Z,7.80
2018-11-29T08:43:17.969Z,7.90
2018-11-29T08:45:46.237Z,7.90
2018-11-29T08:48:14.939Z,7.90
2018-11-29T08:50:43.238Z,7.90
2018-11-29T08:53:11.487Z,7.90
2018-11-29T08:55:39.976Z,7.90
2018-11-29T08:58:08.308Z,7.90
2018-11-29T09:00:36.601Z,7.90
2018-11-29T09:03:05.704Z,8.00
2018-11-29T09:05:34.288Z,7.90
2018-11-29T09:08:03.047Z,7.90
2018-11-29T09:10:31.980Z,8.00
2018-11-29T09:13:00.061Z,8.00
2018-11-29T09:15:28.373Z,7.90
2018-11-29T09:17:57.153Z,7.90
2018-11-29T09:20:26.379Z,7.90
2018-11-29T09:22:54.861Z,7.90
2018-11-29T09:25:23.655Z,7.80
2018-11-29T09:27:51.935Z,7.80
2018-11-29T09:30:21.463Z,7.80
2018-11-29T09:32:52.613Z,7.80
2018-11-29T09:35:21.488Z,7.80
2018-11-29T09:37:50.056Z,7.80
2018-11-29T09:40:18.832Z,7.80
2018-11-29T09:42:48.268Z,7.80
2018-11-29T09:45:17.529Z,7.80
2018-11-29T09:47:48.674Z,7.70
2018-11-29T09:50:17.379Z,7.70
2018-11-29T09:52:45.696Z,7.60
2018-11-29T09:55:15.401Z,7.70
2018-11-29T09:57:44.332Z,7.70
2018-11-29T10:00:18.106Z,7.70
2018-11-29T10:02:53.900Z,7.70
2018-11-29T10:05:22.266Z,7.70
2018-11-29T10:07:50.512Z,7.70
2018-11-29T10:10:18.806Z,7.80
2018-11-29T10:12:47.140Z,7.70
2018-11-29T10:15:15.435Z,7.70
2018-11-29T10:17:43.900Z,7.70
2018-11-29T10:20:12.763Z,7.70
2018-11-29T10:22:41.851Z,7.70
2018-11-29T10:25:11.243Z,7.70
2018-11-29T10:27:39.779Z,7.80
2018-11-29T10:30:20.793Z,7.80
2018-11-29T10:32:49.143Z,7.70
2018-11-29T10:35:17.463Z,7.70
2018-11-29T10:37:45.744Z,7.60
2018-11-29T10:40:15.095Z,7.70
2018-11-29T10:42:43.557Z,7.60
2018-11-29T10:45:14.737Z,7.70
2018-11-29T10:47:44.022Z,7.60
2018-11-29T10:50:13.354Z,7.60
2018-11-29T10:52:41.667Z,7.70
2018-11-29T10:55:15.574Z,7.70
2018-11-29T10:57:43.980Z,7.70
2018-11-29T11:00:23.799Z,7.60
2018-11-29T11:02:58.100Z,7.60
2018-11-29T11:05:26.751Z,7.50
2018-11-29T11:07:55.211Z,7.60
2018-11-29T11:10:23.744Z,7.60
2018-11-29T11:12:51.995Z,7.50
2018-11-29T11:15:20.307Z,7.60
2018-11-29T11:17:48.896Z,7.50
2018-11-29T11:20:17.224Z,7.60
2018-11-29T11:22:46.631Z,7.60
2018-11-29T11:25:14.912Z,7.50
2018-11-29T11:27:43.348Z,7.40
2018-11-29T11:30:14.923Z,7.50
2018-11-29T11:32:44.430Z,7.50
2018-11-29T11:35:13.126Z,7.30
2018-11-29T11:37:41.794Z,7.30
2018-11-29T11:40:12.041Z,7.30
2018-11-29T11:42:40.332Z,7.40
2018-11-29T11:45:11.681Z,7.50
2018-11-29T11:47:40.348Z,7.50
2018-11-29T11:50:13.235Z,7.40
2018-11-29T11:52:41.502Z,7.20
2018-11-29T11:55:10.090Z,7.40
2018-11-29T11:57:38.560Z,7.30
2018-11-29T12:00:10.516Z,7.40
2018-11-29T12:02:38.943Z,7.40
2018-11-29T12:05:08.363Z,7.50
2018-11-29T12:07:36.676Z,7.50
2018-11-29T12:10:05.877Z,7.50
2018-11-29T12:12:34.619Z,7.50
2018-11-29T12:15:02.973Z,7.50
2018-11-29T12:17:31.275Z,7.40
2018-11-29T12:19:59.655Z,7.50
2018-11-29T12:22:27.960Z,7.40
2018-11-29T12:24:56.288Z,7.40
2018-11-29T12:27:24.551Z,7.40
2018-11-29T12:29:52.817Z,7.40
2018-11-29T12:32:21.675Z,7.40
2018-11-29T12:34:49.971Z,7.40
2018-11-29T12:37:18.240Z,7.40
2018-11-29T12:39:46.658Z,7.50
2018-11-29T12:42:14.992Z,7.60
2018-11-29T12:44:43.308Z,7.60
2018-11-29T12:47:11.752Z,7.60
2018-11-29T12:49:40.070Z,7.70
2018-11-29T12:52:08.369Z,7.80
2018-11-29T12:54:36.893Z,7.90
2018-11-29T12:57:06.567Z,7.90
2018-11-29T12:59:34.873Z,7.90
2018-11-29T13:02:03.172Z,7.90
2018-11-29T13:04:32.284Z,7.90
2018-11-29T13:07:00.666Z,7.90
2018-11-29T13:09:28.962Z,8.00
2018-11-29T13:11:57.307Z,8.00
2018-11-29T13:14:27.301Z,8.10
2018-11-29T13:16:56.230Z,8.10
2018-11-29T13:19:31.380Z,7.90
2018-11-29T13:22:00.007Z,7.80
2018-11-29T13:24:28.315Z,8.00
2018-11-29T13:26:56.596Z,8.10
2018-11-29T13:29:25.419Z,8.00
2018-11-29T13:31:55.767Z,8.10
2018-11-29T13:34:24.084Z,8.20
2018-11-29T13:36:52.344Z,8.20
2018-11-29T13:39:20.954Z,8.30
2018-11-29T13:41:49.202Z,8.30
2018-11-29T13:44:17.672Z,8.30
2018-11-29T13:46:46.126Z,8.20
2018-11-29T13:49:14.458Z,8.20
2018-11-29T13:51:42.780Z,8.20
2018-11-29T13:54:11.076Z,8.30
2018-11-29T13:56:40.216Z,8.20
2018-11-29T13:59:08.535Z,8.20
2018-11-29T14:01:37.051Z,8.10
2018-11-29T14:04:06.724Z,8.10
2018-11-29T14:06:35.326Z,8.00
2018-11-29T14:09:03.887Z,8.10
2018-11-29T14:11:32.214Z,8.10
2018-11-29T14:14:00.903Z,8.00
2018-11-29T14:16:30.134Z,8.00
2018-11-29T14:18:58.785Z,8.00
2018-11-29T14:21:27.415Z,8.00
2018-11-29T14:26:43.868Z,8.00
2018-11-29T14:29:14.325Z,8.00
2018-11-29T14:31:42.528Z,8.10
2018-11-29T14:34:10.796Z,8.00
2018-11-29T14:36:38.999Z,8.10
2018-11-29T14:39:07.222Z,8.10
2018-11-29T14:41:36.654Z,8.20
2018-11-29T14:44:06.167Z,8.20
2018-11-29T14:46:34.381Z,8.20
2018-11-29T14:49:02.827Z,8.30
2018-11-29T14:51:30.997Z,8.30
2018-11-29T14:53:59.297Z,8.40
2018-11-29T14:56:27.474Z,8.40
2018-11-29T14:58:55.712Z,8.40
2018-11-29T15:01:24.139Z,8.40
2018-11-29T15:03:52.495Z,8.40
2018-11-29T15:06:20.722Z,8.50
2018-11-29T15:08:48.911Z,8.50
2018-11-29T15:11:18.042Z,8.50
2018-11-29T15:13:46.238Z,8.50
2018-11-29T15:16:14.715Z,8.50
2018-11-29T15:18:49.779Z,8.50
2018-11-29T15:21:17.961Z,8.50
2018-11-29T15:23:46.987Z,8.50
2018-11-29T15:26:15.183Z,8.50
2018-11-29T15:28:43.338Z,8.50
2018-11-29T15:31:11.647Z,8.50
2018-11-29T15:33:40.327Z,8.50
2018-11-29T15:36:08.510Z,8.50
2018-11-29T15:38:36.724Z,8.50
2018-11-29T15:41:05.052Z,8.50
2018-11-29T15:43:33.232Z,8.50
2018-11-29T15:46:01.448Z,8.40
2018-11-29T15:48:30.099Z,8.40
2018-11-29T15:50:58.263Z,8.40
2018-11-29T15:53:26.586Z,8.30
2018-11-29T15:55:55.039Z,8.30
2018-11-29T15:58:23.188Z,8.30
2018-11-29T16:00:51.605Z,8.30
2018-11-29T16:03:19.790Z,8.20
2018-11-29T16:05:48.523Z,8.20
2018-11-29T16:08:16.700Z,8.20
2018-11-29T16:10:44.882Z,8.10
2018-11-29T16:13:13.337Z,8.10
2018-11-29T16:15:41.520Z,8.00
2018-11-29T16:18:10.758Z,8.00
2018-11-29T16:20:39.543Z,8.10
2018-11-29T16:23:08.897Z,8.10
2018-11-29T16:25:37.078Z,8.10
2018-11-29T16:28:05.766Z,8.10
2018-11-29T16:30:44.566Z,8.10
2018-11-29T16:33:22.313Z,8.20
2018-11-29T16:35:50.504Z,8.20
2018-11-29T16:38:18.787Z,8.30
2018-11-29T16:40:47.180Z,8.30
2018-11-29T16:43:15.406Z,8.30
2018-11-29T16:45:43.595Z,8.30
2018-11-29T16:48:11.836Z,8.30
2018-11-29T16:50:40.100Z,8.30
2018-11-29T16:53:08.462Z,8.30
2018-11-29T16:55:37.221Z,8.30
2018-11-29T16:58:09.973Z,8.30
2018-11-29T17:00:38.140Z,8.30
2018-11-29T17:03:06.358Z,8.40
2018-11-29T17:05:34.569Z,8.30
2018-11-29T17:08:02.801Z,8.30
2018-11-29T17:10:31.271Z,8.30
2018-11-29T17:13:02.054Z,8.30
2018-11-29T17:15:30.206Z,8.20
2018-11-29T17:17:58.368Z,8.20
2018-11-29T17:20:26.626Z,8.20
2018-11-29T17:22:54.807Z,8.10
2018-11-29T17:25:22.975Z,8.10
2018-11-29T17:27:51.193Z,8.10
2018-11-29T17:30:22.278Z,8.10
2018-11-29T17:32:52.543Z,8.10
2018-11-29T17:35:20.763Z,8.10
2018-11-29T17:37:49.122Z,8.00
2018-11-29T17:40:18.377Z,8.00
2018-11-29T17:42:46.551Z,8.00
2018-11-29T17:45:19.762Z,8.00
2018-11-29T17:47:48.244Z,7.90
2018-11-29T17:50:18.948Z,7.90
2018-11-29T17:52:47.552Z,7.90
2018-11-29T17:55:15.948Z,7.80
2018-11-29T17:57:44.118Z,7.80
2018-11-29T18:00:18.367Z,7.80
2018-11-29T18:02:46.640Z,7.80
2018-11-29T18:05:14.811Z,7.90
2018-11-29T18:07:42.981Z,7.90
2018-11-29T18:10:18.265Z,7.90
2018-11-29T18:12:47.920Z,7.90
2018-11-29T18:15:19.558Z,8.00
2018-11-29T18:17:47.859Z,8.00
2018-11-29T18:20:16.034Z,8.10
2018-11-29T18:22:44.454Z,8.10
2018-11-29T18:25:13.891Z,8.10
2018-11-29T18:27:45.310Z,8.20
2018-11-29T18:30:15.668Z,8.30
2018-11-29T18:32:43.951Z,8.30
2018-11-29T18:35:14.555Z,8.30
2018-11-29T18:37:42.919Z,8.30
2018-11-29T18:40:14.014Z,8.30
2018-11-29T18:42:43.187Z,8.30
2018-11-29T18:45:12.583Z,8.30
2018-11-29T18:47:41.255Z,8.30
2018-11-29T18:50:15.358Z,8.40
2018-11-29T18:52:44.615Z,8.40
2018-11-29T18:55:13.442Z,8.40
2018-11-29T18:57:41.771Z,8.40
2018-11-29T19:00:13.635Z,8.40
2018-11-29T19:02:42.174Z,8.50
2018-11-29T19:05:10.523Z,8.40
2018-11-29T19:07:38.776Z,8.50
2018-11-29T19:10:16.378Z,8.50
2018-11-29T19:12:49.155Z,8.50
2018-11-29T19:15:18.226Z,8.40
2018-11-29T19:17:46.471Z,8.40
2018-11-29T19:20:14.747Z,8.40
2018-11-29T19:22:43.640Z,8.30
2018-11-29T19:25:14.834Z,8.20
2018-11-29T19:27:43.312Z,8.20
2018-11-29T19:30:17.734Z,8.20
2018-11-29T19:32:47.688Z,8.20
2018-11-29T19:35:15.935Z,8.30
2018-11-29T19:37:44.168Z,8.20
2018-11-29T19:40:14.815Z,8.20
2018-11-29T19:42:43.056Z,8.20
2018-11-29T19:45:13.565Z,8.30
2018-11-29T19:47:41.761Z,8.40
2018-11-29T19:50:14.175Z,8.30
2018-11-29T19:52:43.644Z,8.40
2018-11-29T19:55:13.618Z,8.40
2018-11-29T19:57:41.867Z,8.30
2018-11-29T20:00:11.546Z,8.30
2018-11-29T20:02:39.760Z,8.30
2018-11-29T20:05:09.812Z,8.30
2018-11-29T20:07:38.134Z,8.30
2018-11-29T20:10:08.559Z,8.30
2018-11-29T20:12:36.735Z,8.20
2018-11-29T20:15:07.728Z,8.20
2018-11-29T20:17:36.036Z,8.20
2018-11-29T20:20:04.208Z,8.20
2018-11-29T20:22:32.448Z,8.30
2018-11-29T20:25:00.609Z,8.30
2018-11-29T20:27:28.863Z,8.30
2018-11-29T20:29:57.109Z,8.40
2018-11-29T20:32:25.279Z,8.30
2018-11-29T20:34:53.476Z,8.40
2018-11-29T20:37:21.664Z,8.40
2018-11-29T20:39:49.824Z,8.30
2018-11-29T20:42:18.007Z,8.30
2018-11-29T20:44:46.270Z,8.30
2018-11-29T20:47:14.563Z,8.30
2018-11-29T20:49:42.738Z,8.30
2018-11-29T20:52:10.914Z,8.30
2018-11-29T20:54:39.193Z,8.30
2018-11-29T20:57:07.654Z,8.40
2018-11-29T20:59:36.060Z,8.40
2018-11-29T21:02:04.382Z,8.30
2018-11-29T21:04:32.679Z,8.30
2018-11-29T21:07:01.071Z,8.30
2018-11-29T21:09:30.200Z,8.30
2018-11-29T21:11:58.641Z,8.20
2018-11-29T21:14:26.843Z,8.20
2018-11-29T21:16:55.169Z,8.30
2018-11-29T21:19:23.344Z,8.30
2018-11-29T21:21:51.611Z,8.30
2018-11-29T21:24:20.724Z,8.30
2018-11-29T21:26:48.893Z,8.30
2018-11-29T21:29:17.090Z,8.30
2018-11-29T21:31:45.250Z,8.30
2018-11-29T21:34:13.439Z,8.40
2018-11-29T21:36:41.631Z,8.40
2018-11-29T21:39:09.823Z,8.50
2018-11-29T21:41:37.982Z,8.60
2018-11-29T21:44:05.905Z,8.60
2018-11-29T21:46:34.075Z,8.70
2018-11-29T21:49:02.284Z,8.70
2018-11-29T21:51:30.430Z,8.70
2018-11-29T21:53:58.607Z,8.70
2018-11-29T21:56:26.875Z,8.80
2018-11-29T21:58:55.063Z,8.80
2018-11-29T22:01:23.239Z,8.80
2018-11-29T22:03:51.571Z,8.80
2018-11-29T22:06:19.710Z,8.80
2018-11-29T22:08:47.922Z,8.80
2018-11-29T22:11:16.108Z,8.80
2018-11-29T22:13:44.273Z,8.80
2018-11-29T22:16:12.416Z,8.80
2018-11-29T22:18:40.726Z,8.80
2018-11-29T22:21:09.098Z,8.80
2018-11-29T22:23:38.386Z,8.80
2018-11-29T22:26:15.190Z,8.70
2018-11-29T22:28:43.407Z,8.70
2018-11-29T22:31:11.586Z,8.70
2018-11-29T22:33:39.738Z,8.70
2018-11-29T22:36:07.934Z,8.70
2018-11-29T22:38:36.244Z,8.70
2018-11-29T22:41:04.658Z,8.70
2018-11-29T22:43:32.919Z,8.70
2018-11-29T22:46:01.262Z,8.60
2018-11-29T22:48:29.423Z,8.60
2018-11-29T22:50:57.632Z,8.70
2018-11-29T22:53:25.789Z,8.70
2018-11-29T22:55:53.969Z,8.70
2018-11-29T22:58:22.272Z,8.70
2018-11-29T23:00:51.904Z,8.70
2018-11-29T23:03:20.243Z,8.70
2018-11-29T23:05:48.479Z,8.70
2018-11-29T23:08:16.653Z,8.70
2018-11-29T23:10:44.845Z,8.70
2018-11-29T23:13:13.054Z,8.60
2018-11-29T23:15:41.248Z,8.70
2018-11-29T23:18:09.525Z,8.60
2018-11-29T23:20:37.743Z,8.60
2018-11-29T23:23:05.950Z,8.60
2018-11-29T23:25:34.535Z,8.60
2018-11-29T23:28:03.367Z,8.60
2018-11-29T23:30:31.526Z,8.60
2018-11-29T23:32:59.850Z,8.60
2018-11-29T23:35:28.171Z,8.60
2018-11-29T23:37:56.384Z,8.60
2018-11-29T23:40:24.588Z,8.60
2018-11-29T23:42:52.796Z,8.60
2018-11-29T23:45:20.991Z,8.70
2018-11-29T23:47:49.189Z,8.60
2018-11-29T23:50:18.033Z,8.70
2018-11-29T23:52:46.590Z,8.60
2018-11-29T23:55:17.026Z,8.60
2018-11-29T23:57:45.199Z,8.70
